sensor_id;sensor_type;location;lat;lon;timestamp;P1;durP1;ratioP1;P2;durP2;ratioP2
50363;SDS011;36272;59.400;17.982;2022-10-17T00:02:54;11.85;;;2.50;;
50363;SDS011;36272;59.400;17.982;2022-10-17T00:07:56;12.00;;;1.90;;
50363;SDS011;36272;59.400;17.982;2022-10-17T00:12:57;13.05;;;2.22;;
50363;SDS011;36272;59.400;17.982;2022-10-17T00:17:59;11.68;;;1.92;;
50363;SDS011;36272;59.400;17.982;2022-10-17T00:23:02;8.35;;;1.60;;
50363;SDS011;36272;59.400;17.982;2022-10-17T00:28:06;9.48;;;1.73;;
50363;SDS011;36272;59.400;17.982;2022-10-17T00:33:09;13.90;;;1.48;;
50363;SDS011;36272;59.400;17.982;2022-10-17T00:38:11;10.68;;;1.73;;
50363;SDS011;36272;59.400;17.982;2022-10-17T00:43:16;12.52;;;1.80;;
50363;SDS011;36272;59.400;17.982;2022-10-17T00:48:18;9.68;;;1.33;;
50363;SDS011;36272;59.400;17.982;2022-10-17T00:53:22;12.02;;;1.95;;
50363;SDS011;36272;59.400;17.982;2022-10-17T00:58:24;12.43;;;1.83;;
50363;SDS011;36272;59.400;17.982;2022-10-17T01:03:25;15.05;;;2.40;;
50363;SDS011;36272;59.400;17.982;2022-10-17T01:08:27;10.43;;;1.63;;
50363;SDS011;36272;59.400;17.982;2022-10-17T01:13:31;16.52;;;1.92;;
50363;SDS011;36272;59.400;17.982;2022-10-17T01:39:42;12.47;;;2.13;;
50363;SDS011;36272;59.400;17.982;2022-10-17T01:44:52;12.32;;;2.22;;
50363;SDS011;36272;59.400;17.982;2022-10-17T01:50:05;11.52;;;1.65;;
50363;SDS011;36272;59.400;17.982;2022-10-17T01:55:15;16.20;;;2.53;;
50363;SDS011;36272;59.400;17.982;2022-10-17T02:00:22;14.43;;;2.00;;
50363;SDS011;36272;59.400;17.982;2022-10-17T02:05:28;17.48;;;2.25;;
50363;SDS011;36272;59.400;17.982;2022-10-17T02:27:13;14.05;;;2.10;;
50363;SDS011;36272;59.400;17.982;2022-10-17T02:32:22;14.32;;;2.63;;
50363;SDS011;36272;59.400;17.982;2022-10-17T02:37:28;11.73;;;2.38;;
50363;SDS011;36272;59.400;17.982;2022-10-17T02:42:31;13.82;;;2.47;;
50363;SDS011;36272;59.400;17.982;2022-10-17T02:47:35;14.27;;;2.00;;
50363;SDS011;36272;59.400;17.982;2022-10-17T02:58:12;16.25;;;2.08;;
50363;SDS011;36272;59.400;17.982;2022-10-17T03:03:23;17.85;;;2.40;;
50363;SDS011;36272;59.400;17.982;2022-10-17T03:08:28;10.18;;;2.28;;
50363;SDS011;36272;59.400;17.982;2022-10-17T03:13:30;9.15;;;1.70;;
50363;SDS011;36272;59.400;17.982;2022-10-17T03:18:32;15.02;;;1.95;;
50363;SDS011;36272;59.400;17.982;2022-10-17T03:23:33;10.95;;;1.70;;
50363;SDS011;36272;59.400;17.982;2022-10-17T03:28:35;10.88;;;1.98;;
50363;SDS011;36272;59.400;17.982;2022-10-17T03:33:36;15.77;;;2.67;;
50363;SDS011;36272;59.400;17.982;2022-10-17T03:38:38;12.63;;;1.80;;
50363;SDS011;36272;59.400;17.982;2022-10-17T03:43:40;9.43;;;1.83;;
50363;SDS011;36272;59.400;17.982;2022-10-17T03:48:42;12.38;;;2.00;;
50363;SDS011;36272;59.400;17.982;2022-10-17T03:53:44;10.23;;;2.25;;
50363;SDS011;36272;59.400;17.982;2022-10-17T03:58:46;12.63;;;2.03;;
50363;SDS011;36272;59.400;17.982;2022-10-17T04:03:48;10.25;;;1.60;;
50363;SDS011;36272;59.400;17.982;2022-10-17T04:08:52;16.23;;;2.08;;
50363;SDS011;36272;59.400;17.982;2022-10-17T04:13:54;12.10;;;2.05;;
50363;SDS011;36272;59.400;17.982;2022-10-17T04:18:57;7.65;;;1.73;;
50363;SDS011;36272;59.400;17.982;2022-10-17T04:24:00;11.52;;;1.80;;
50363;SDS011;36272;59.400;17.982;2022-10-17T04:29:01;9.85;;;1.88;;
50363;SDS011;36272;59.400;17.982;2022-10-17T04:34:03;8.68;;;2.30;;
50363;SDS011;36272;59.400;17.982;2022-10-17T04:39:05;14.05;;;2.08;;
50363;SDS011;36272;59.400;17.982;2022-10-17T04:44:06;10.68;;;2.00;;
50363;SDS011;36272;59.400;17.982;2022-10-17T04:49:08;14.23;;;2.40;;
50363;SDS011;36272;59.400;17.982;2022-10-17T04:54:10;13.20;;;1.92;;
50363;SDS011;36272;59.400;17.982;2022-10-17T04:59:11;14.27;;;2.13;;
50363;SDS011;36272;59.400;17.982;2022-10-17T05:04:13;15.95;;;2.42;;
50363;SDS011;36272;59.400;17.982;2022-10-17T05:09:15;8.70;;;1.92;;
50363;SDS011;36272;59.400;17.982;2022-10-17T05:14:16;11.20;;;2.00;;
50363;SDS011;36272;59.400;17.982;2022-10-17T05:19:18;11.55;;;1.95;;
50363;SDS011;36272;59.400;17.982;2022-10-17T05:24:19;13.80;;;1.80;;
50363;SDS011;36272;59.400;17.982;2022-10-17T05:29:21;12.10;;;2.00;;
50363;SDS011;36272;59.400;17.982;2022-10-17T05:34:23;13.38;;;2.22;;
50363;SDS011;36272;59.400;17.982;2022-10-17T05:39:25;8.25;;;2.00;;
50363;SDS011;36272;59.400;17.982;2022-10-17T05:44:27;10.88;;;1.95;;
50363;SDS011;36272;59.400;17.982;2022-10-17T05:49:28;7.63;;;1.90;;
50363;SDS011;36272;59.400;17.982;2022-10-17T05:54:30;12.27;;;2.67;;
50363;SDS011;36272;59.400;17.982;2022-10-17T05:59:32;14.30;;;2.63;;
50363;SDS011;36272;59.400;17.982;2022-10-17T06:04:33;12.43;;;2.20;;
50363;SDS011;36272;59.400;17.982;2022-10-17T06:09:35;15.88;;;3.10;;
50363;SDS011;36272;59.400;17.982;2022-10-17T06:14:36;14.45;;;2.75;;
50363;SDS011;36272;59.400;17.982;2022-10-17T06:19:41;12.52;;;2.03;;
50363;SDS011;36272;59.400;17.982;2022-10-17T06:24:49;11.32;;;1.80;;
50363;SDS011;36272;59.400;17.982;2022-10-17T06:29:52;12.80;;;1.95;;
50363;SDS011;36272;59.400;17.982;2022-10-17T06:34:54;14.95;;;2.13;;
50363;SDS011;36272;59.400;17.982;2022-10-17T06:39:55;16.23;;;2.03;;
50363;SDS011;36272;59.400;17.982;2022-10-17T06:44:57;11.50;;;2.10;;
50363;SDS011;36272;59.400;17.982;2022-10-17T06:49:59;10.25;;;2.30;;
50363;SDS011;36272;59.400;17.982;2022-10-17T06:55:00;17.35;;;2.80;;
50363;SDS011;36272;59.400;17.982;2022-10-17T07:00:03;9.80;;;2.10;;
50363;SDS011;36272;59.400;17.982;2022-10-17T07:05:06;14.10;;;2.00;;
50363;SDS011;36272;59.400;17.982;2022-10-17T07:10:08;10.57;;;2.30;;
50363;SDS011;36272;59.400;17.982;2022-10-17T07:15:10;14.40;;;2.17;;
50363;SDS011;36272;59.400;17.982;2022-10-17T07:20:11;7.53;;;2.00;;
50363;SDS011;36272;59.400;17.982;2022-10-17T07:25:13;12.52;;;1.85;;
50363;SDS011;36272;59.400;17.982;2022-10-17T07:30:15;16.60;;;2.40;;
50363;SDS011;36272;59.400;17.982;2022-10-17T07:35:17;15.13;;;2.30;;
50363;SDS011;36272;59.400;17.982;2022-10-17T07:40:21;13.13;;;2.47;;
50363;SDS011;36272;59.400;17.982;2022-10-17T07:45:23;10.73;;;2.13;;
50363;SDS011;36272;59.400;17.982;2022-10-17T07:50:27;6.72;;;1.73;;
50363;SDS011;36272;59.400;17.982;2022-10-17T07:55:29;10.50;;;2.08;;
50363;SDS011;36272;59.400;17.982;2022-10-17T08:00:31;10.30;;;1.80;;
50363;SDS011;36272;59.400;17.982;2022-10-17T08:05:32;17.45;;;2.30;;
50363;SDS011;36272;59.400;17.982;2022-10-17T08:10:34;9.73;;;1.55;;
50363;SDS011;36272;59.400;17.982;2022-10-17T08:15:37;10.20;;;1.75;;
50363;SDS011;36272;59.400;17.982;2022-10-17T08:20:39;10.48;;;1.83;;
50363;SDS011;36272;59.400;17.982;2022-10-17T08:25:42;10.25;;;1.60;;
50363;SDS011;36272;59.400;17.982;2022-10-17T08:30:43;10.85;;;2.13;;
50363;SDS011;36272;59.400;17.982;2022-10-17T08:35:45;10.68;;;1.70;;
50363;SDS011;36272;59.400;17.982;2022-10-17T08:40:47;11.32;;;2.22;;
50363;SDS011;36272;59.400;17.982;2022-10-17T08:45:57;10.75;;;2.25;;
50363;SDS011;36272;59.400;17.982;2022-10-17T08:51:14;10.63;;;2.08;;
50363;SDS011;36272;59.400;17.982;2022-10-17T08:56:25;14.83;;;2.27;;
50363;SDS011;36272;59.400;17.982;2022-10-17T09:01:32;13.52;;;2.35;;
50363;SDS011;36272;59.400;17.982;2022-10-17T09:06:43;10.93;;;1.90;;
50363;SDS011;36272;59.400;17.982;2022-10-17T09:17:38;6.45;;;1.40;;
50363;SDS011;36272;59.400;17.982;2022-10-17T09:23:10;8.02;;;1.50;;
50363;SDS011;36272;59.400;17.982;2022-10-17T09:28:20;12.13;;;1.85;;
50363;SDS011;36272;59.400;17.982;2022-10-17T09:33:35;10.30;;;1.80;;
50363;SDS011;36272;59.400;17.982;2022-10-17T09:38:44;6.50;;;1.35;;
50363;SDS011;36272;59.400;17.982;2022-10-17T09:43:51;4.22;;;1.25;;
50363;SDS011;36272;59.400;17.982;2022-10-17T09:48:57;11.88;;;1.60;;
50363;SDS011;36272;59.400;17.982;2022-10-17T09:54:16;13.75;;;2.47;;
50363;SDS011;36272;59.400;17.982;2022-10-17T09:59:32;10.13;;;1.60;;
50363;SDS011;36272;59.400;17.982;2022-10-17T10:04:35;8.95;;;1.90;;
50363;SDS011;36272;59.400;17.982;2022-10-17T10:09:37;12.45;;;1.67;;
50363;SDS011;36272;59.400;17.982;2022-10-17T10:14:39;9.23;;;1.92;;
50363;SDS011;36272;59.400;17.982;2022-10-17T10:19:48;14.27;;;1.92;;
50363;SDS011;36272;59.400;17.982;2022-10-17T10:25:05;5.05;;;1.52;;
50363;SDS011;36272;59.400;17.982;2022-10-17T10:30:18;10.70;;;2.60;;
50363;SDS011;36272;59.400;17.982;2022-10-17T10:35:33;7.80;;;1.60;;
50363;SDS011;36272;59.400;17.982;2022-10-17T10:40:38;8.27;;;1.25;;
50363;SDS011;36272;59.400;17.982;2022-10-17T10:45:47;7.57;;;1.33;;
50363;SDS011;36272;59.400;17.982;2022-10-17T10:51:01;6.47;;;1.55;;
50363;SDS011;36272;59.400;17.982;2022-10-17T11:06:28;8.20;;;1.25;;
50363;SDS011;36272;59.400;17.982;2022-10-17T11:11:35;5.30;;;1.20;;
50363;SDS011;36272;59.400;17.982;2022-10-17T11:27:31;6.43;;;1.20;;
50363;SDS011;36272;59.400;17.982;2022-10-17T11:32:53;5.75;;;1.38;;
50363;SDS011;36272;59.400;17.982;2022-10-17T11:43:28;6.72;;;1.77;;
50363;SDS011;36272;59.400;17.982;2022-10-17T11:54:12;12.63;;;1.52;;
50363;SDS011;36272;59.400;17.982;2022-10-17T11:59:38;9.63;;;1.70;;
50363;SDS011;36272;59.400;17.982;2022-10-17T12:05:02;10.05;;;1.60;;
50363;SDS011;36272;59.400;17.982;2022-10-17T12:15:31;6.82;;;1.48;;
50363;SDS011;36272;59.400;17.982;2022-10-17T12:20:34;7.80;;;1.40;;
50363;SDS011;36272;59.400;17.982;2022-10-17T12:25:46;6.45;;;1.80;;
50363;SDS011;36272;59.400;17.982;2022-10-17T12:57:19;9.77;;;1.70;;
50363;SDS011;36272;59.400;17.982;2022-10-17T13:02:26;7.80;;;1.67;;
50363;SDS011;36272;59.400;17.982;2022-10-17T13:07:29;12.30;;;1.73;;
50363;SDS011;36272;59.400;17.982;2022-10-17T13:12:31;6.05;;;1.70;;
50363;SDS011;36272;59.400;17.982;2022-10-17T13:17:37;12.32;;;2.00;;
50363;SDS011;36272;59.400;17.982;2022-10-17T13:22:43;10.50;;;1.80;;
50363;SDS011;36272;59.400;17.982;2022-10-17T13:27:45;14.02;;;2.25;;
50363;SDS011;36272;59.400;17.982;2022-10-17T13:32:48;12.00;;;2.22;;
50363;SDS011;36272;59.400;17.982;2022-10-17T13:37:50;13.75;;;2.38;;
50363;SDS011;36272;59.400;17.982;2022-10-17T13:42:54;14.80;;;2.05;;
50363;SDS011;36272;59.400;17.982;2022-10-17T13:47:59;12.73;;;2.72;;
50363;SDS011;36272;59.400;17.982;2022-10-17T13:58:17;12.55;;;2.28;;
50363;SDS011;36272;59.400;17.982;2022-10-17T14:03:19;11.48;;;2.20;;
50363;SDS011;36272;59.400;17.982;2022-10-17T14:08:22;18.65;;;2.72;;
50363;SDS011;36272;59.400;17.982;2022-10-17T14:13:28;13.63;;;2.05;;
50363;SDS011;36272;59.400;17.982;2022-10-17T14:18:38;17.23;;;2.35;;
50363;SDS011;36272;59.400;17.982;2022-10-17T14:23:41;12.90;;;2.50;;
50363;SDS011;36272;59.400;17.982;2022-10-17T14:29:03;15.20;;;2.42;;
50363;SDS011;36272;59.400;17.982;2022-10-17T14:34:44;10.05;;;2.00;;
50363;SDS011;36272;59.400;17.982;2022-10-17T14:39:49;15.38;;;2.50;;
50363;SDS011;36272;59.400;17.982;2022-10-17T14:44:52;15.20;;;2.70;;
50363;SDS011;36272;59.400;17.982;2022-10-17T14:50:03;13.48;;;2.50;;
50363;SDS011;36272;59.400;17.982;2022-10-17T14:55:24;16.50;;;2.65;;
50363;SDS011;36272;59.400;17.982;2022-10-17T15:00:27;14.40;;;3.08;;
50363;SDS011;36272;59.400;17.982;2022-10-17T15:05:37;16.45;;;2.72;;
50363;SDS011;36272;59.400;17.982;2022-10-17T15:10:39;21.52;;;3.00;;
50363;SDS011;36272;59.400;17.982;2022-10-17T15:15:44;13.50;;;2.67;;
50363;SDS011;36272;59.400;17.982;2022-10-17T15:20:51;13.10;;;2.90;;
50363;SDS011;36272;59.400;17.982;2022-10-17T15:25:55;12.15;;;2.40;;
50363;SDS011;36272;59.400;17.982;2022-10-17T15:30:57;13.70;;;2.67;;
50363;SDS011;36272;59.400;17.982;2022-10-17T15:35:59;9.82;;;2.72;;
50363;SDS011;36272;59.400;17.982;2022-10-17T15:41:00;22.80;;;3.00;;
50363;SDS011;36272;59.400;17.982;2022-10-17T15:46:12;17.92;;;3.05;;
50363;SDS011;36272;59.400;17.982;2022-10-17T15:51:24;18.48;;;2.58;;
50363;SDS011;36272;59.400;17.982;2022-10-17T15:56:29;12.98;;;2.60;;
50363;SDS011;36272;59.400;17.982;2022-10-17T16:07:20;15.35;;;2.50;;
50363;SDS011;36272;59.400;17.982;2022-10-17T16:12:25;17.58;;;2.65;;
50363;SDS011;36272;59.400;17.982;2022-10-17T16:17:29;17.38;;;3.60;;
50363;SDS011;36272;59.400;17.982;2022-10-17T16:22:33;22.42;;;3.40;;
50363;SDS011;36272;59.400;17.982;2022-10-17T16:27:36;17.05;;;2.88;;
50363;SDS011;36272;59.400;17.982;2022-10-17T16:32:39;12.77;;;2.95;;
50363;SDS011;36272;59.400;17.982;2022-10-17T16:37:43;12.77;;;2.45;;
50363;SDS011;36272;59.400;17.982;2022-10-17T16:42:45;15.70;;;3.00;;
50363;SDS011;36272;59.400;17.982;2022-10-17T16:47:47;16.83;;;2.60;;
50363;SDS011;36272;59.400;17.982;2022-10-17T16:52:49;21.80;;;3.28;;
50363;SDS011;36272;59.400;17.982;2022-10-17T16:57:51;17.00;;;2.88;;
50363;SDS011;36272;59.400;17.982;2022-10-17T17:02:53;16.50;;;2.67;;
50363;SDS011;36272;59.400;17.982;2022-10-17T17:07:54;15.40;;;2.53;;
50363;SDS011;36272;59.400;17.982;2022-10-17T17:12:56;13.48;;;2.55;;
50363;SDS011;36272;59.400;17.982;2022-10-17T17:17:58;17.58;;;2.90;;
50363;SDS011;36272;59.400;17.982;2022-10-17T17:22:59;16.33;;;2.90;;
50363;SDS011;36272;59.400;17.982;2022-10-17T17:28:02;20.38;;;2.80;;
50363;SDS011;36272;59.400;17.982;2022-10-17T17:33:04;16.05;;;3.22;;
50363;SDS011;36272;59.400;17.982;2022-10-17T17:38:07;18.95;;;3.67;;
50363;SDS011;36272;59.400;17.982;2022-10-17T17:43:09;21.42;;;3.20;;
50363;SDS011;36272;59.400;17.982;2022-10-17T17:48:11;16.55;;;3.03;;
50363;SDS011;36272;59.400;17.982;2022-10-17T17:53:13;17.83;;;3.05;;
50363;SDS011;36272;59.400;17.982;2022-10-17T17:58:16;21.65;;;3.55;;
50363;SDS011;36272;59.400;17.982;2022-10-17T18:03:17;26.55;;;3.80;;
50363;SDS011;36272;59.400;17.982;2022-10-17T18:08:19;22.60;;;3.47;;
50363;SDS011;36272;59.400;17.982;2022-10-17T18:13:21;18.80;;;3.38;;
50363;SDS011;36272;59.400;17.982;2022-10-17T18:18:23;26.20;;;3.97;;
50363;SDS011;36272;59.400;17.982;2022-10-17T18:23:26;19.25;;;3.38;;
50363;SDS011;36272;59.400;17.982;2022-10-17T18:28:28;31.52;;;3.72;;
50363;SDS011;36272;59.400;17.982;2022-10-17T18:33:29;29.48;;;3.38;;
50363;SDS011;36272;59.400;17.982;2022-10-17T18:38:31;22.85;;;3.97;;
50363;SDS011;36272;59.400;17.982;2022-10-17T18:43:34;27.98;;;4.70;;
50363;SDS011;36272;59.400;17.982;2022-10-17T18:48:40;22.98;;;3.88;;
50363;SDS011;36272;59.400;17.982;2022-10-17T18:53:43;30.40;;;4.63;;
50363;SDS011;36272;59.400;17.982;2022-10-17T18:58:47;30.80;;;4.22;;
50363;SDS011;36272;59.400;17.982;2022-10-17T19:03:54;32.17;;;3.95;;
50363;SDS011;36272;59.400;17.982;2022-10-17T19:08:57;30.92;;;4.50;;
50363;SDS011;36272;59.400;17.982;2022-10-17T19:14:01;32.08;;;4.50;;
50363;SDS011;36272;59.400;17.982;2022-10-17T19:24:18;37.05;;;4.88;;
50363;SDS011;36272;59.400;17.982;2022-10-17T19:29:23;30.10;;;4.93;;
50363;SDS011;36272;59.400;17.982;2022-10-17T19:34:28;28.60;;;4.72;;
50363;SDS011;36272;59.400;17.982;2022-10-17T19:39:29;30.92;;;5.82;;
50363;SDS011;36272;59.400;17.982;2022-10-17T19:44:31;33.90;;;5.25;;
50363;SDS011;36272;59.400;17.982;2022-10-17T19:49:33;42.08;;;4.82;;
50363;SDS011;36272;59.400;17.982;2022-10-17T19:54:34;36.08;;;5.28;;
50363;SDS011;36272;59.400;17.982;2022-10-17T19:59:39;38.33;;;5.25;;
50363;SDS011;36272;59.400;17.982;2022-10-17T20:04:41;35.88;;;5.80;;
50363;SDS011;36272;59.400;17.982;2022-10-17T20:09:42;35.38;;;5.68;;
50363;SDS011;36272;59.400;17.982;2022-10-17T20:14:44;34.85;;;5.07;;
50363;SDS011;36272;59.400;17.982;2022-10-17T20:19:45;35.88;;;5.20;;
50363;SDS011;36272;59.400;17.982;2022-10-17T20:24:47;28.00;;;4.82;;
50363;SDS011;36272;59.400;17.982;2022-10-17T20:29:49;27.17;;;4.90;;
50363;SDS011;36272;59.400;17.982;2022-10-17T20:34:53;31.67;;;5.30;;
50363;SDS011;36272;59.400;17.982;2022-10-17T20:39:54;24.02;;;4.80;;
50363;SDS011;36272;59.400;17.982;2022-10-17T20:44:56;26.17;;;4.32;;
50363;SDS011;36272;59.400;17.982;2022-10-17T20:49:58;24.77;;;4.18;;
50363;SDS011;36272;59.400;17.982;2022-10-17T20:55:00;24.25;;;4.38;;
50363;SDS011;36272;59.400;17.982;2022-10-17T21:00:02;26.48;;;3.97;;
50363;SDS011;36272;59.400;17.982;2022-10-17T21:05:06;29.13;;;4.28;;
50363;SDS011;36272;59.400;17.982;2022-10-17T21:10:08;28.70;;;4.78;;
50363;SDS011;36272;59.400;17.982;2022-10-17T21:15:10;24.08;;;4.03;;
50363;SDS011;36272;59.400;17.982;2022-10-17T21:20:11;36.83;;;4.63;;
50363;SDS011;36272;59.400;17.982;2022-10-17T21:25:13;21.98;;;4.05;;
50363;SDS011;36272;59.400;17.982;2022-10-17T21:30:14;23.95;;;4.20;;
50363;SDS011;36272;59.400;17.982;2022-10-17T21:35:16;25.45;;;4.55;;
50363;SDS011;36272;59.400;17.982;2022-10-17T21:40:17;28.05;;;4.40;;
50363;SDS011;36272;59.400;17.982;2022-10-17T21:45:19;24.60;;;4.07;;
50363;SDS011;36272;59.400;17.982;2022-10-17T21:50:21;19.25;;;4.63;;
50363;SDS011;36272;59.400;17.982;2022-10-17T21:55:23;24.75;;;4.80;;
50363;SDS011;36272;59.400;17.982;2022-10-17T22:00:24;24.85;;;3.33;;
50363;SDS011;36272;59.400;17.982;2022-10-17T22:05:26;12.13;;;2.92;;
50363;SDS011;36272;59.400;17.982;2022-10-17T22:10:27;9.32;;;2.33;;
50363;SDS011;36272;59.400;17.982;2022-10-17T22:15:29;13.55;;;2.83;;
50363;SDS011;36272;59.400;17.982;2022-10-17T22:20:41;21.15;;;3.28;;
50363;SDS011;36272;59.400;17.982;2022-10-17T22:25:42;14.02;;;2.17;;
50363;SDS011;36272;59.400;17.982;2022-10-17T22:30:44;10.65;;;2.75;;
50363;SDS011;36272;59.400;17.982;2022-10-17T22:35:46;12.52;;;3.03;;
50363;SDS011;36272;59.400;17.982;2022-10-17T22:40:47;17.55;;;3.03;;
50363;SDS011;36272;59.400;17.982;2022-10-17T22:45:56;11.95;;;3.00;;
50363;SDS011;36272;59.400;17.982;2022-10-17T22:51:00;11.93;;;3.60;;
50363;SDS011;36272;59.400;17.982;2022-10-17T22:56:11;13.18;;;2.70;;
50363;SDS011;36272;59.400;17.982;2022-10-17T23:06:24;10.77;;;2.63;;
50363;SDS011;36272;59.400;17.982;2022-10-17T23:11:26;10.73;;;2.35;;
50363;SDS011;36272;59.400;17.982;2022-10-17T23:16:28;14.50;;;2.50;;
50363;SDS011;36272;59.400;17.982;2022-10-17T23:21:29;12.10;;;3.13;;
50363;SDS011;36272;59.400;17.982;2022-10-17T23:26:31;11.75;;;2.83;;
50363;SDS011;36272;59.400;17.982;2022-10-17T23:31:33;14.30;;;2.88;;
50363;SDS011;36272;59.400;17.982;2022-10-17T23:36:34;11.60;;;3.45;;
50363;SDS011;36272;59.400;17.982;2022-10-17T23:41:44;14.00;;;3.55;;
50363;SDS011;36272;59.400;17.982;2022-10-17T23:46:46;14.63;;;3.97;;
50363;SDS011;36272;59.400;17.982;2022-10-17T23:51:52;13.98;;;3.42;;
50363;SDS011;36272;59.400;17.982;2022-10-17T23:56:54;14.65;;;2.65;;
